GIA7405 OEMA-WIII
Flight info
| Callsign | GIA7405 |
|---|---|
| Flight time | N/A |
| Altitude | 37000 |
| Route | MEDR1K MEDRO M872 BDB Y214 RAPMA DCT DEGNO DCT GOBRO L425 ASPUX UL425 TVM N640 KAT M766 PAGAI G461 BIDAK |
| Aircraft | B77W/H-SDE1E2E3FGHIJ2J3J4J5M1RWXY/LB1D1 |
Departure
| Time | 2026-04-27 15:56 |
|---|---|
| Airport | Prince Mohammad Bin Abdulaziz Airport (OEMA) |
Arrival
| Time | N/A |
|---|---|
| Airport | Soekarno-Hatta International Airport (WIII) |
| Time | Latitude | Longitude | Altitude | Speed | Heading |
|---|---|---|---|---|---|
| 2026-04-27 15:37 | 24.55759 | 39.71210 | 2165 ft | 0 kts | 79° |
| 2026-04-27 15:45 | 24.55759 | 39.71208 | 2165 ft | 1 kts | 79° |
| 2026-04-27 15:46 | 24.55756 | 39.71191 | 2165 ft | 3 kts | 86° |
| 2026-04-27 15:46 | 24.55756 | 39.71168 | 2165 ft | 3 kts | 101° |
| 2026-04-27 15:46 | 24.55760 | 39.71149 | 2165 ft | 3 kts | 117° |
| 2026-04-27 15:46 | 24.55770 | 39.71132 | 2165 ft | 3 kts | 137° |
| 2026-04-27 15:47 | 24.55784 | 39.71119 | 2165 ft | 3 kts | 155° |
| 2026-04-27 15:47 | 24.55802 | 39.71112 | 2165 ft | 2 kts | 167° |
| 2026-04-27 15:47 | 24.55807 | 39.71110 | 2165 ft | 0 kts | 169° |
| 2026-04-27 15:50 | 24.55804 | 39.71111 | 2165 ft | 2 kts | 169° |
| 2026-04-27 15:50 | 24.55772 | 39.71117 | 2165 ft | 9 kts | 169° |
| 2026-04-27 15:50 | 24.55690 | 39.71134 | 2165 ft | 14 kts | 169° |
| 2026-04-27 15:50 | 24.55570 | 39.71160 | 2165 ft | 21 kts | 169° |
| 2026-04-27 15:51 | 24.55420 | 39.71192 | 2165 ft | 23 kts | 168° |
| 2026-04-27 15:51 | 24.55301 | 39.71218 | 2165 ft | 8 kts | 170° |
| 2026-04-27 15:51 | 24.55256 | 39.71178 | 2165 ft | 13 kts | 245° |
| 2026-04-27 15:51 | 24.55237 | 39.71081 | 2165 ft | 11 kts | 260° |
| 2026-04-27 15:52 | 24.55195 | 39.71042 | 2165 ft | 10 kts | 172° |
| 2026-04-27 15:52 | 24.55116 | 39.71057 | 2165 ft | 13 kts | 169° |
| 2026-04-27 15:52 | 24.55001 | 39.71082 | 2165 ft | 21 kts | 169° |
| 2026-04-27 15:52 | 24.54845 | 39.71114 | 2165 ft | 23 kts | 168° |
| 2026-04-27 15:53 | 24.54687 | 39.71148 | 2165 ft | 22 kts | 169° |
| 2026-04-27 15:53 | 24.54519 | 39.71183 | 2165 ft | 23 kts | 169° |
| 2026-04-27 15:53 | 24.54343 | 39.71220 | 2165 ft | 27 kts | 169° |
| 2026-04-27 15:53 | 24.54173 | 39.71256 | 2165 ft | 23 kts | 169° |
| 2026-04-27 15:54 | 24.54019 | 39.71288 | 2165 ft | 22 kts | 169° |
| 2026-04-27 15:54 | 24.53915 | 39.71311 | 2165 ft | 9 kts | 168° |
| 2026-04-27 15:54 | 24.53863 | 39.71280 | 2165 ft | 12 kts | 245° |
| 2026-04-27 15:54 | 24.53846 | 39.71185 | 2165 ft | 9 kts | 260° |
| 2026-04-27 15:55 | 24.53879 | 39.71136 | 2165 ft | 9 kts | 346° |
| 2026-04-27 15:55 | 24.53887 | 39.71134 | 2165 ft | 0 kts | 348° |
| 2026-04-27 15:55 | 24.53918 | 39.71127 | 2165 ft | 16 kts | 349° |
| 2026-04-27 15:55 | 24.54100 | 39.71088 | 2165 ft | 67 kts | 349° |
| 2026-04-27 15:56 | 24.54854 | 39.70928 | 2165 ft | 149 kts | 347° |
| 2026-04-27 15:56 | 24.56069 | 39.70668 | 2227 ft | 203 kts | 345° |
| 2026-04-27 15:56 | 24.57551 | 39.70362 | 2841 ft | 217 kts | 346° |
| 2026-04-27 15:56 | 24.59072 | 39.70128 | 3644 ft | 227 kts | 348° |
| 2026-04-27 15:57 | 24.60699 | 39.69825 | 4370 ft | 240 kts | 343° |
| 2026-04-27 15:57 | 24.62408 | 39.69376 | 4776 ft | 265 kts | 344° |
| 2026-04-27 15:57 | 24.64286 | 39.68927 | 5272 ft | 287 kts | 345° |
| 2026-04-27 15:57 | 24.66009 | 39.68551 | 5980 ft | 295 kts | 346° |
| 2026-04-27 15:58 | 24.68546 | 39.68013 | 7264 ft | 298 kts | 345° |
| 2026-04-27 15:58 | 24.70550 | 39.67588 | 8231 ft | 302 kts | 344° |
| 2026-04-27 15:58 | 24.72631 | 39.67146 | 9139 ft | 306 kts | 343° |
| 2026-04-27 15:58 | 24.74742 | 39.66696 | 10042 ft | 311 kts | 343° |
| 2026-04-27 15:59 | 24.76872 | 39.66249 | 10761 ft | 323 kts | 345° |
| 2026-04-27 15:59 | 24.79269 | 39.66171 | 11217 ft | 351 kts | 4° |
| 2026-04-27 15:59 | 24.81670 | 39.67058 | 11674 ft | 379 kts | 25° |
| 2026-04-27 15:59 | 24.83809 | 39.68885 | 12180 ft | 400 kts | 45° |
| 2026-04-27 16:00 | 24.85383 | 39.71460 | 12777 ft | 413 kts | 64° |
| 2026-04-27 16:00 | 24.86123 | 39.73623 | 13260 ft | 419 kts | 73° |
| 2026-04-27 16:00 | 24.87000 | 39.78011 | 14197 ft | 428 kts | 82° |
| 2026-04-27 16:00 | 24.87395 | 39.81331 | 14905 ft | 435 kts | 84° |
| 2026-04-27 16:01 | 24.87628 | 39.83568 | 15398 ft | 439 kts | 86° |
| 2026-04-27 16:01 | 24.87923 | 39.86944 | 16007 ft | 446 kts | 87° |
| 2026-04-27 16:01 | 24.88173 | 39.90371 | 16696 ft | 452 kts | 88° |
| 2026-04-27 16:01 | 24.88404 | 39.94031 | 17381 ft | 458 kts | 89° |
| 2026-04-27 16:02 | 24.88612 | 39.97706 | 18051 ft | 464 kts | 89° |
| 2026-04-27 16:02 | 24.88810 | 40.01227 | 18643 ft | 470 kts | 89° |
| 2026-04-27 16:02 | 24.88935 | 40.04895 | 19227 ft | 474 kts | 94° |
| 2026-04-27 16:02 | 24.88716 | 40.08526 | 19776 ft | 478 kts | 100° |
| 2026-04-27 16:03 | 24.88139 | 40.12103 | 20320 ft | 480 kts | 107° |
| 2026-04-27 16:03 | 24.87285 | 40.15667 | 20855 ft | 484 kts | 110° |
| 2026-04-27 16:03 | 24.86350 | 40.19256 | 21394 ft | 489 kts | 111° |
| 2026-04-27 16:03 | 24.85341 | 40.22902 | 21918 ft | 494 kts | 112° |
| 2026-04-27 16:04 | 24.84296 | 40.26531 | 22419 ft | 499 kts | 113° |
| 2026-04-27 16:04 | 24.83216 | 40.30187 | 22897 ft | 505 kts | 113° |
| 2026-04-27 16:04 | 24.82126 | 40.33878 | 23361 ft | 510 kts | 113° |
| 2026-04-27 16:04 | 24.81025 | 40.37612 | 23817 ft | 515 kts | 114° |
| 2026-04-27 16:05 | 24.79898 | 40.41433 | 24260 ft | 520 kts | 114° |
| 2026-04-27 16:05 | 24.78777 | 40.45233 | 24675 ft | 525 kts | 114° |
| 2026-04-27 16:05 | 24.77658 | 40.49022 | 25124 ft | 529 kts | 113° |
| 2026-04-27 16:05 | 24.76516 | 40.52890 | 25563 ft | 533 kts | 113° |
| 2026-04-27 16:06 | 24.75349 | 40.56831 | 25922 ft | 538 kts | 113° |
| 2026-04-27 16:06 | 24.74187 | 40.60758 | 26310 ft | 542 kts | 112° |
| 2026-04-27 16:06 | 24.73014 | 40.64719 | 26715 ft | 546 kts | 112° |
| 2026-04-27 16:06 | 24.71879 | 40.68551 | 27170 ft | 547 kts | 112° |
| 2026-04-27 16:07 | 24.70625 | 40.72776 | 27601 ft | 550 kts | 112° |
| 2026-04-27 16:07 | 24.69421 | 40.76827 | 27942 ft | 554 kts | 112° |
| 2026-04-27 16:07 | 24.68203 | 40.80921 | 28290 ft | 558 kts | 112° |
| 2026-04-27 16:07 | 24.66994 | 40.84981 | 28631 ft | 561 kts | 112° |
| 2026-04-27 16:08 | 24.65773 | 40.89077 | 28954 ft | 564 kts | 112° |
| 2026-04-27 16:08 | 24.64544 | 40.93193 | 29258 ft | 567 kts | 112° |
| 2026-04-27 16:08 | 24.63308 | 40.97332 | 29563 ft | 570 kts | 112° |
| 2026-04-27 16:08 | 24.62070 | 41.01468 | 29954 ft | 570 kts | 112° |
| 2026-04-27 16:09 | 24.60882 | 41.05435 | 30359 ft | 570 kts | 112° |
| 2026-04-27 16:09 | 24.58320 | 41.13971 | 31213 ft | 569 kts | 111° |
| 2026-04-27 16:09 | 24.57079 | 41.18108 | 31676 ft | 567 kts | 111° |
| 2026-04-27 16:10 | 24.54612 | 41.26303 | 32808 ft | 559 kts | 111° |
| 2026-04-27 16:10 | 24.52584 | 41.33030 | 33536 ft | 555 kts | 111° |
| 2026-04-27 16:11 | 24.51296 | 41.37294 | 34126 ft | 550 kts | 111° |
| 2026-04-27 16:11 | 24.48892 | 41.45243 | 35021 ft | 544 kts | 111° |
| 2026-04-27 16:12 | 24.46509 | 41.53105 | 35750 ft | 542 kts | 111° |
| 2026-04-27 16:12 | 24.45403 | 41.56748 | 36110 ft | 539 kts | 111° |
| 2026-04-27 16:12 | 24.42906 | 41.64961 | 36825 ft | 537 kts | 111° |
| 2026-04-27 16:13 | 24.41723 | 41.68845 | 36872 ft | 540 kts | 111° |
| 2026-04-27 16:13 | 24.37998 | 41.81055 | 36864 ft | 550 kts | 111° |
| 2026-04-27 16:14 | 24.33056 | 41.97191 | 36863 ft | 551 kts | 111° |
| 2026-04-27 16:15 | 24.28114 | 42.13259 | 36863 ft | 551 kts | 111° |
| 2026-04-27 16:16 | 24.23546 | 42.28058 | 36867 ft | 551 kts | 111° |
| 2026-04-27 16:17 | 24.18589 | 42.44055 | 36868 ft | 551 kts | 111° |
| 2026-04-27 16:18 | 24.13889 | 42.59324 | 36867 ft | 551 kts | 110° |
| 2026-04-27 16:19 | 24.11028 | 42.68675 | 36870 ft | 551 kts | 111° |
| 2026-04-27 16:20 | 24.06031 | 42.84765 | 36873 ft | 551 kts | 111° |
| 2026-04-27 16:21 | 24.02868 | 42.95561 | 36878 ft | 551 kts | 108° |
| 2026-04-27 16:22 | 23.98396 | 43.12301 | 36877 ft | 551 kts | 109° |
| 2026-04-27 16:22 | 23.95115 | 43.24312 | 36882 ft | 551 kts | 109° |
| 2026-04-27 16:23 | 23.91841 | 43.36413 | 36882 ft | 551 kts | 109° |
| 2026-04-27 16:24 | 23.89632 | 43.44492 | 36889 ft | 550 kts | 109° |
| 2026-04-27 16:25 | 23.85254 | 43.60490 | 36891 ft | 550 kts | 109° |
| 2026-04-27 16:26 | 23.80816 | 43.76525 | 36891 ft | 549 kts | 109° |
| 2026-04-27 16:27 | 23.77073 | 43.91551 | 36896 ft | 551 kts | 101° |
| 2026-04-27 16:28 | 23.75602 | 44.12491 | 36898 ft | 551 kts | 96° |
| 2026-04-27 16:29 | 23.74056 | 44.33303 | 36899 ft | 548 kts | 97° |
| 2026-04-27 16:30 | 23.72793 | 44.49835 | 36898 ft | 539 kts | 98° |
| 2026-04-27 16:31 | 23.71214 | 44.70252 | 36899 ft | 542 kts | 99° |
| 2026-04-27 16:32 | 23.70229 | 44.82555 | 36896 ft | 545 kts | 97° |
| 2026-04-27 16:33 | 23.69247 | 44.95042 | 36897 ft | 550 kts | 97° |
| 2026-04-27 16:33 | 23.68566 | 45.03391 | 36894 ft | 548 kts | 97° |
| 2026-04-27 16:34 | 23.67877 | 45.11821 | 36893 ft | 551 kts | 96° |
| 2026-04-27 16:34 | 23.67183 | 45.20268 | 36893 ft | 552 kts | 96° |
| 2026-04-27 16:35 | 23.66480 | 45.28776 | 36890 ft | 551 kts | 96° |
| 2026-04-27 16:36 | 23.65448 | 45.41457 | 36889 ft | 550 kts | 96° |
| 2026-04-27 16:36 | 23.64746 | 45.49743 | 36887 ft | 551 kts | 96° |
| 2026-04-27 16:37 | 23.64159 | 45.56657 | 36887 ft | 550 kts | 96° |
| 2026-04-27 16:37 | 23.63333 | 45.66370 | 36888 ft | 550 kts | 96° |
| 2026-04-27 16:38 | 23.62730 | 45.73358 | 36886 ft | 550 kts | 96° |
| 2026-04-27 16:38 | 23.62008 | 45.81658 | 36885 ft | 550 kts | 96° |
| 2026-04-27 16:39 | 23.61291 | 45.89858 | 36884 ft | 550 kts | 96° |
| 2026-04-27 16:39 | 23.60539 | 45.98423 | 36884 ft | 550 kts | 97° |
| 2026-04-27 16:40 | 23.59818 | 46.06905 | 36883 ft | 549 kts | 96° |
| 2026-04-27 16:40 | 23.59093 | 46.15258 | 36882 ft | 549 kts | 97° |
| 2026-04-27 16:41 | 23.58381 | 46.23550 | 36882 ft | 549 kts | 97° |
| 2026-04-27 16:41 | 23.57652 | 46.31715 | 36881 ft | 549 kts | 97° |
| 2026-04-27 16:42 | 23.56879 | 46.40234 | 36880 ft | 549 kts | 97° |
| 2026-04-27 16:42 | 23.56127 | 46.48511 | 36880 ft | 549 kts | 97° |
| 2026-04-27 16:43 | 23.55368 | 46.56851 | 36880 ft | 549 kts | 97° |
| 2026-04-27 16:43 | 23.54598 | 46.65187 | 36880 ft | 549 kts | 97° |
| 2026-04-27 16:44 | 23.53828 | 46.73464 | 36880 ft | 549 kts | 97° |
| 2026-04-27 16:44 | 23.53086 | 46.81404 | 36880 ft | 549 kts | 97° |
| 2026-04-27 16:45 | 23.52278 | 46.90002 | 36878 ft | 549 kts | 97° |
| 2026-04-27 16:45 | 23.51530 | 46.98299 | 36877 ft | 549 kts | 97° |
| 2026-04-27 16:46 | 23.50749 | 47.06697 | 36877 ft | 550 kts | 97° |
| 2026-04-27 16:46 | 23.49962 | 47.15038 | 36867 ft | 550 kts | 96° |
| 2026-04-27 16:47 | 23.49308 | 47.22128 | 36865 ft | 550 kts | 96° |
| 2026-04-27 16:47 | 23.48516 | 47.30413 | 36865 ft | 550 kts | 96° |
| 2026-04-27 16:48 | 23.47701 | 47.38810 | 36862 ft | 550 kts | 96° |
| 2026-04-27 16:48 | 23.46889 | 47.47155 | 36863 ft | 550 kts | 96° |
| 2026-04-27 16:49 | 23.45657 | 47.59755 | 36862 ft | 550 kts | 97° |
| 2026-04-27 16:49 | 23.44837 | 47.68033 | 36860 ft | 550 kts | 97° |
| 2026-04-27 16:50 | 23.44002 | 47.76423 | 36860 ft | 550 kts | 97° |
| 2026-04-27 16:50 | 23.43169 | 47.84759 | 36858 ft | 550 kts | 97° |
| 2026-04-27 16:51 | 23.42340 | 47.93214 | 36857 ft | 550 kts | 96° |
| 2026-04-27 16:51 | 23.41497 | 48.01889 | 36857 ft | 550 kts | 96° |
| 2026-04-27 16:52 | 23.40675 | 48.10171 | 36853 ft | 550 kts | 97° |
| 2026-04-27 16:52 | 23.39961 | 48.17165 | 36852 ft | 550 kts | 97° |
| 2026-04-27 16:53 | 23.39112 | 48.25445 | 36852 ft | 550 kts | 97° |
| 2026-04-27 16:53 | 23.37889 | 48.33707 | 36847 ft | 549 kts | 107° |
| 2026-04-27 16:54 | 23.34811 | 48.41227 | 36849 ft | 544 kts | 126° |
| 2026-04-27 16:54 | 23.30378 | 48.47877 | 36845 ft | 541 kts | 129° |
| 2026-04-27 16:55 | 23.26135 | 48.54637 | 36845 ft | 540 kts | 126° |
| 2026-04-27 16:55 | 23.22099 | 48.61544 | 36844 ft | 541 kts | 125° |
| 2026-04-27 16:56 | 23.18044 | 48.68494 | 36843 ft | 542 kts | 125° |
| 2026-04-27 16:56 | 23.14009 | 48.75417 | 36843 ft | 542 kts | 126° |
| 2026-04-27 16:57 | 23.09947 | 48.82310 | 36840 ft | 542 kts | 126° |
| 2026-04-27 16:57 | 23.05877 | 48.89194 | 36841 ft | 541 kts | 126° |
| 2026-04-27 16:58 | 23.01782 | 48.96116 | 36841 ft | 541 kts | 126° |
| 2026-04-27 16:58 | 22.97681 | 49.02914 | 36835 ft | 541 kts | 128° |
| 2026-04-27 16:59 | 22.93190 | 49.09521 | 36837 ft | 540 kts | 130° |
| 2026-04-27 16:59 | 22.88654 | 49.16022 | 36838 ft | 540 kts | 130° |
| 2026-04-27 17:00 | 22.81916 | 49.25846 | 36816 ft | 539 kts | 129° |
| 2026-04-27 17:01 | 22.77455 | 49.32399 | 36813 ft | 540 kts | 129° |
| 2026-04-27 17:01 | 22.73075 | 49.38869 | 36816 ft | 540 kts | 129° |
| 2026-04-27 17:02 | 22.68564 | 49.45499 | 36817 ft | 539 kts | 129° |
| 2026-04-27 17:02 | 22.64057 | 49.52090 | 36814 ft | 543 kts | 127° |
| 2026-04-27 17:03 | 22.59375 | 49.58968 | 36811 ft | 546 kts | 128° |
| 2026-04-27 17:03 | 22.54871 | 49.65561 | 36811 ft | 542 kts | 129° |
| 2026-04-27 17:04 | 22.50354 | 49.72135 | 36813 ft | 540 kts | 128° |
| 2026-04-27 17:04 | 22.48151 | 49.75335 | 37058 ft | 525 kts | 126° |
| 2026-04-27 17:04 | 22.46037 | 49.78418 | 37320 ft | 504 kts | 124° |
| 2026-04-27 17:04 | 22.43951 | 49.81462 | 36988 ft | 501 kts | 124° |
| 2026-04-27 17:05 | 22.42544 | 49.83514 | 36887 ft | 504 kts | 124° |
| 2026-04-27 17:05 | 22.38993 | 49.88688 | 36826 ft | 508 kts | 123° |
| 2026-04-27 17:06 | 22.35480 | 49.93800 | 36828 ft | 508 kts | 124° |
| 2026-04-27 17:06 | 22.30577 | 50.00923 | 36823 ft | 501 kts | 124° |
| 2026-04-27 17:07 | 22.27102 | 50.05963 | 36823 ft | 497 kts | 124° |
| 2026-04-27 17:07 | 22.22978 | 50.11939 | 36824 ft | 497 kts | 124° |
| 2026-04-27 17:08 | 22.18836 | 50.17934 | 36824 ft | 498 kts | 124° |
| 2026-04-27 17:08 | 22.14688 | 50.23932 | 36824 ft | 499 kts | 124° |
| 2026-04-27 17:09 | 22.10540 | 50.29921 | 36824 ft | 498 kts | 124° |
| 2026-04-27 17:09 | 22.06389 | 50.35910 | 36824 ft | 498 kts | 124° |
| 2026-04-27 17:10 | 22.02236 | 50.41894 | 36824 ft | 498 kts | 124° |
| 2026-04-27 17:10 | 21.98114 | 50.47827 | 36825 ft | 498 kts | 124° |
| 2026-04-27 17:11 | 21.93931 | 50.53842 | 36825 ft | 498 kts | 124° |
| 2026-04-27 17:11 | 21.87470 | 50.63118 | 36825 ft | 498 kts | 124° |
| 2026-04-27 17:12 | 21.81216 | 50.72083 | 36825 ft | 498 kts | 124° |
| 2026-04-27 17:13 | 21.77027 | 50.78078 | 36823 ft | 498 kts | 124° |
| 2026-04-27 17:13 | 21.72857 | 50.84040 | 36821 ft | 498 kts | 124° |
| 2026-04-27 17:14 | 21.68688 | 50.89995 | 36818 ft | 499 kts | 124° |
| 2026-04-27 17:14 | 21.64507 | 50.95960 | 36819 ft | 499 kts | 124° |
| 2026-04-27 17:15 | 21.60321 | 51.01926 | 36822 ft | 499 kts | 125° |
| 2026-04-27 17:15 | 21.56011 | 51.08061 | 36828 ft | 500 kts | 125° |
| 2026-04-27 17:16 | 21.51837 | 51.13997 | 36833 ft | 501 kts | 125° |
| 2026-04-27 17:16 | 21.47618 | 51.19990 | 36834 ft | 501 kts | 125° |
| 2026-04-27 17:17 | 21.43833 | 51.25361 | 36830 ft | 501 kts | 125° |
| 2026-04-27 17:17 | 21.39514 | 51.31483 | 36833 ft | 501 kts | 125° |
| 2026-04-27 17:18 | 21.33205 | 51.40415 | 36832 ft | 501 kts | 125° |
| 2026-04-27 17:18 | 21.28995 | 51.46366 | 36832 ft | 501 kts | 125° |
| 2026-04-27 17:19 | 21.24779 | 51.52321 | 36831 ft | 501 kts | 125° |
| 2026-04-27 17:19 | 21.20467 | 51.58402 | 36830 ft | 501 kts | 125° |
| 2026-04-27 17:20 | 21.16250 | 51.64345 | 36830 ft | 501 kts | 125° |
| 2026-04-27 17:20 | 21.11883 | 51.70493 | 36831 ft | 501 kts | 125° |
| 2026-04-27 17:21 | 21.07602 | 51.76512 | 36830 ft | 501 kts | 125° |
| 2026-04-27 17:21 | 21.04351 | 51.81080 | 36829 ft | 501 kts | 125° |
| 2026-04-27 17:22 | 21.00837 | 51.86012 | 36828 ft | 501 kts | 125° |
| 2026-04-27 17:22 | 20.96616 | 51.91931 | 36829 ft | 501 kts | 125° |
| 2026-04-27 17:23 | 20.92350 | 51.97906 | 36829 ft | 501 kts | 125° |
| 2026-04-27 17:23 | 20.88118 | 52.03829 | 36828 ft | 501 kts | 125° |
| 2026-04-27 17:24 | 20.83910 | 52.09710 | 36827 ft | 500 kts | 125° |
| 2026-04-27 17:24 | 20.79574 | 52.15766 | 36827 ft | 500 kts | 125° |
| 2026-04-27 17:25 | 20.75336 | 52.21677 | 36828 ft | 501 kts | 125° |
| 2026-04-27 17:25 | 20.71062 | 52.27633 | 36823 ft | 502 kts | 125° |
| 2026-04-27 17:26 | 20.66819 | 52.33539 | 36824 ft | 507 kts | 125° |
| 2026-04-27 17:26 | 20.62414 | 52.39665 | 36826 ft | 504 kts | 126° |
| 2026-04-27 17:27 | 20.58157 | 52.45579 | 36827 ft | 500 kts | 126° |
| 2026-04-27 17:27 | 20.53883 | 52.51509 | 36805 ft | 503 kts | 126° |
| 2026-04-27 17:28 | 20.49578 | 52.57478 | 36804 ft | 510 kts | 126° |
| 2026-04-27 17:29 | 20.42922 | 52.66692 | 36806 ft | 509 kts | 126° |
| 2026-04-27 17:29 | 20.38616 | 52.72645 | 36805 ft | 506 kts | 126° |
| 2026-04-27 17:30 | 20.34300 | 52.78607 | 36805 ft | 511 kts | 126° |
| 2026-04-27 17:30 | 20.27803 | 52.87569 | 36805 ft | 514 kts | 126° |
| 2026-04-27 17:31 | 20.23346 | 52.93709 | 36804 ft | 513 kts | 126° |
| 2026-04-27 17:31 | 20.19624 | 52.98832 | 36806 ft | 512 kts | 126° |
| 2026-04-27 17:32 | 20.13689 | 53.06992 | 36806 ft | 513 kts | 126° |
| 2026-04-27 17:33 | 20.09376 | 53.12913 | 36806 ft | 513 kts | 126° |
| 2026-04-27 17:33 | 20.04910 | 53.19039 | 36806 ft | 513 kts | 126° |
| 2026-04-27 17:34 | 20.00527 | 53.25045 | 36807 ft | 513 kts | 126° |
| 2026-04-27 17:34 | 19.96138 | 53.31054 | 36807 ft | 513 kts | 126° |
| 2026-04-27 17:35 | 19.91751 | 53.37053 | 36807 ft | 513 kts | 126° |
| 2026-04-27 17:35 | 19.87308 | 53.43123 | 36806 ft | 513 kts | 126° |
| 2026-04-27 17:36 | 19.82921 | 53.49111 | 36808 ft | 513 kts | 126° |
| 2026-04-27 17:36 | 19.78508 | 53.55145 | 36808 ft | 514 kts | 126° |
| 2026-04-27 17:37 | 19.74112 | 53.61139 | 36808 ft | 514 kts | 126° |
| 2026-04-27 17:37 | 19.69689 | 53.67149 | 36807 ft | 514 kts | 126° |
| 2026-04-27 17:38 | 19.65305 | 53.73100 | 36808 ft | 514 kts | 126° |
| 2026-04-27 17:38 | 19.61088 | 53.79259 | 36808 ft | 512 kts | 119° |
| 2026-04-27 17:38 | 19.59495 | 53.82693 | 36809 ft | 511 kts | 108° |
| 2026-04-27 17:39 | 19.58457 | 53.86287 | 36810 ft | 509 kts | 102° |
| 2026-04-27 17:39 | 19.56647 | 53.93758 | 36807 ft | 508 kts | 104° |
| 2026-04-27 17:40 | 19.54597 | 54.00927 | 36808 ft | 507 kts | 105° |
| 2026-04-27 17:40 | 19.52567 | 54.08137 | 36808 ft | 507 kts | 104° |
| 2026-04-27 17:41 | 19.50788 | 54.14441 | 36808 ft | 507 kts | 104° |
| 2026-04-27 17:41 | 19.48741 | 54.21666 | 36809 ft | 508 kts | 104° |
| 2026-04-27 17:42 | 19.46799 | 54.28502 | 36808 ft | 508 kts | 104° |
| 2026-04-27 17:42 | 19.44713 | 54.35873 | 36808 ft | 507 kts | 104° |
| 2026-04-27 17:43 | 19.42697 | 54.43041 | 36808 ft | 507 kts | 104° |
| 2026-04-27 17:43 | 19.40641 | 54.50297 | 36808 ft | 508 kts | 104° |
| 2026-04-27 17:44 | 19.38590 | 54.57507 | 36808 ft | 508 kts | 105° |
| 2026-04-27 17:44 | 19.36490 | 54.64873 | 36807 ft | 507 kts | 105° |
| 2026-04-27 17:45 | 19.34710 | 54.71103 | 36807 ft | 507 kts | 105° |
| 2026-04-27 17:45 | 19.32468 | 54.78941 | 36807 ft | 507 kts | 105° |
| 2026-04-27 17:46 | 19.30409 | 54.86126 | 36806 ft | 507 kts | 105° |
| 2026-04-27 17:46 | 19.28346 | 54.93315 | 36806 ft | 507 kts | 105° |
| 2026-04-27 17:47 | 19.26266 | 55.00549 | 36806 ft | 506 kts | 105° |
| 2026-04-27 17:47 | 19.24614 | 55.06287 | 36805 ft | 506 kts | 105° |
| 2026-04-27 17:48 | 19.22503 | 55.13608 | 36806 ft | 507 kts | 105° |
| 2026-04-27 17:48 | 19.20444 | 55.20739 | 36805 ft | 507 kts | 105° |
| 2026-04-27 17:49 | 19.18368 | 55.27914 | 36804 ft | 506 kts | 105° |
| 2026-04-27 17:49 | 19.16319 | 55.34990 | 36803 ft | 506 kts | 105° |
| 2026-04-27 17:50 | 19.14247 | 55.42158 | 36804 ft | 505 kts | 105° |
| 2026-04-27 17:50 | 19.11121 | 55.52932 | 36802 ft | 505 kts | 105° |
| 2026-04-27 17:51 | 19.09069 | 55.59953 | 36801 ft | 504 kts | 105° |
| 2026-04-27 17:51 | 19.07292 | 55.66029 | 36801 ft | 504 kts | 105° |
| 2026-04-27 17:52 | 19.05219 | 55.73122 | 36801 ft | 505 kts | 105° |
| 2026-04-27 17:52 | 19.03145 | 55.80219 | 36799 ft | 505 kts | 105° |
| 2026-04-27 17:53 | 19.01055 | 55.87309 | 36798 ft | 504 kts | 105° |
| 2026-04-27 17:53 | 18.98942 | 55.94466 | 36797 ft | 504 kts | 105° |
| 2026-04-27 17:54 | 18.96867 | 56.01495 | 36797 ft | 503 kts | 105° |
| 2026-04-27 17:54 | 18.94769 | 56.08557 | 36795 ft | 503 kts | 105° |
| 2026-04-27 17:55 | 18.92570 | 56.15937 | 36794 ft | 502 kts | 105° |
| 2026-04-27 17:55 | 18.90472 | 56.22965 | 36794 ft | 502 kts | 105° |
| 2026-04-27 17:56 | 18.88339 | 56.30102 | 36792 ft | 502 kts | 105° |
| 2026-04-27 17:56 | 18.86236 | 56.37142 | 36792 ft | 502 kts | 105° |
| 2026-04-27 17:57 | 18.84119 | 56.44306 | 36791 ft | 502 kts | 105° |
| 2026-04-27 17:57 | 18.82046 | 56.51265 | 36789 ft | 502 kts | 105° |
| 2026-04-27 17:58 | 18.79946 | 56.58286 | 36788 ft | 501 kts | 105° |
| 2026-04-27 17:58 | 18.77832 | 56.65338 | 36787 ft | 500 kts | 105° |
| 2026-04-27 17:59 | 18.75728 | 56.72345 | 36786 ft | 500 kts | 105° |
| 2026-04-27 17:59 | 18.73626 | 56.79335 | 36784 ft | 500 kts | 105° |
| 2026-04-27 18:00 | 18.71862 | 56.85191 | 36783 ft | 500 kts | 105° |
| 2026-04-27 18:00 | 18.69739 | 56.92231 | 36784 ft | 500 kts | 105° |
| 2026-04-27 18:01 | 18.67640 | 56.99182 | 36781 ft | 500 kts | 105° |
| 2026-04-27 18:01 | 18.65681 | 57.05658 | 36781 ft | 500 kts | 105° |
| 2026-04-27 18:02 | 18.63584 | 57.12581 | 36779 ft | 499 kts | 105° |
| 2026-04-27 18:02 | 18.61440 | 57.19648 | 36778 ft | 499 kts | 105° |
| 2026-04-27 18:03 | 18.59330 | 57.26595 | 36777 ft | 499 kts | 105° |
| 2026-04-27 18:03 | 18.57203 | 57.33587 | 36776 ft | 498 kts | 105° |
| 2026-04-27 18:04 | 18.55082 | 57.40551 | 36774 ft | 498 kts | 105° |
| 2026-04-27 18:04 | 18.52948 | 57.47544 | 36774 ft | 498 kts | 105° |
| 2026-04-27 18:05 | 18.50821 | 57.54506 | 36773 ft | 498 kts | 105° |
| 2026-04-27 18:05 | 18.48697 | 57.61449 | 36771 ft | 498 kts | 105° |
| 2026-04-27 18:06 | 18.46576 | 57.68405 | 36770 ft | 498 kts | 105° |
| 2026-04-27 18:06 | 18.44424 | 57.75436 | 36770 ft | 498 kts | 105° |
| 2026-04-27 18:07 | 18.42449 | 57.81847 | 36769 ft | 498 kts | 105° |
| 2026-04-27 18:07 | 18.40180 | 57.89203 | 36768 ft | 497 kts | 105° |
| 2026-04-27 18:08 | 18.38044 | 57.96122 | 36767 ft | 497 kts | 105° |
| 2026-04-27 18:08 | 18.35892 | 58.03063 | 36767 ft | 497 kts | 106° |
| 2026-04-27 18:09 | 18.33729 | 58.09987 | 36767 ft | 497 kts | 106° |
| 2026-04-27 18:09 | 18.31551 | 58.16952 | 36765 ft | 497 kts | 106° |
| 2026-04-27 18:10 | 18.29386 | 58.23868 | 36766 ft | 497 kts | 106° |
| 2026-04-27 18:10 | 18.27220 | 58.30777 | 36764 ft | 497 kts | 106° |
| 2026-04-27 18:11 | 18.25103 | 58.37592 | 36764 ft | 497 kts | 105° |
| 2026-04-27 18:11 | 18.23007 | 58.44324 | 36765 ft | 497 kts | 106° |
| 2026-04-27 18:12 | 18.20893 | 58.51080 | 36763 ft | 497 kts | 106° |
| 2026-04-27 18:12 | 18.18729 | 58.57978 | 36763 ft | 497 kts | 106° |
| 2026-04-27 18:13 | 18.16517 | 58.65013 | 36762 ft | 497 kts | 106° |
| 2026-04-27 18:13 | 18.14345 | 58.71912 | 36763 ft | 497 kts | 106° |
| 2026-04-27 18:14 | 18.12168 | 58.78819 | 36761 ft | 497 kts | 106° |
| 2026-04-27 18:14 | 18.10063 | 58.85486 | 36762 ft | 497 kts | 106° |
| 2026-04-27 18:15 | 18.08064 | 58.91810 | 36763 ft | 497 kts | 106° |
| 2026-04-27 18:15 | 18.05881 | 58.98707 | 36762 ft | 497 kts | 106° |
| 2026-04-27 18:16 | 18.03695 | 59.05604 | 36761 ft | 497 kts | 106° |
| 2026-04-27 18:16 | 18.01491 | 59.12548 | 36761 ft | 497 kts | 106° |
| 2026-04-27 18:17 | 17.99333 | 59.19337 | 36761 ft | 497 kts | 106° |
| 2026-04-27 18:17 | 17.97084 | 59.26404 | 36761 ft | 497 kts | 106° |
| 2026-04-27 18:18 | 17.94888 | 59.33296 | 36761 ft | 497 kts | 106° |
| 2026-04-27 18:18 | 17.92648 | 59.40316 | 36761 ft | 497 kts | 106° |
| 2026-04-27 18:19 | 17.90434 | 59.47243 | 36761 ft | 497 kts | 106° |
| 2026-04-27 18:19 | 17.88146 | 59.54394 | 36762 ft | 497 kts | 106° |
| 2026-04-27 18:20 | 17.85941 | 59.61275 | 36761 ft | 497 kts | 106° |
| 2026-04-27 18:20 | 17.84077 | 59.67084 | 36761 ft | 497 kts | 106° |
| 2026-04-27 18:21 | 17.81870 | 59.74004 | 36760 ft | 497 kts | 106° |
| 2026-04-27 18:21 | 17.79675 | 59.80822 | 36761 ft | 497 kts | 106° |
| 2026-04-27 18:22 | 17.77535 | 59.87451 | 36761 ft | 497 kts | 106° |
| 2026-04-27 18:22 | 17.75271 | 59.94457 | 36760 ft | 497 kts | 106° |
| 2026-04-27 18:23 | 17.72763 | 60.01268 | 36764 ft | 498 kts | 114° |
| 2026-04-27 18:23 | 17.69346 | 60.07655 | 36762 ft | 501 kts | 119° |
| 2026-04-27 18:24 | 17.65399 | 60.14103 | 36761 ft | 502 kts | 120° |
| 2026-04-27 18:24 | 17.61614 | 60.20372 | 36762 ft | 502 kts | 119° |
| 2026-04-27 18:25 | 17.57932 | 60.26593 | 36762 ft | 502 kts | 119° |
| 2026-04-27 18:25 | 17.54245 | 60.32867 | 36763 ft | 502 kts | 119° |
| 2026-04-27 18:26 | 17.50614 | 60.39080 | 36763 ft | 502 kts | 119° |
| 2026-04-27 18:26 | 17.46948 | 60.45329 | 36763 ft | 502 kts | 119° |
| 2026-04-27 18:27 | 17.43287 | 60.51557 | 36764 ft | 502 kts | 119° |
| 2026-04-27 18:27 | 17.39626 | 60.57780 | 36764 ft | 502 kts | 119° |
| 2026-04-27 18:28 | 17.35955 | 60.64011 | 36764 ft | 502 kts | 119° |
| 2026-04-27 18:28 | 17.32282 | 60.70241 | 36765 ft | 502 kts | 119° |
| 2026-04-27 18:29 | 17.28617 | 60.76451 | 36765 ft | 502 kts | 119° |
| 2026-04-27 18:29 | 17.24914 | 60.82719 | 36765 ft | 502 kts | 119° |
| 2026-04-27 18:30 | 17.21243 | 60.88928 | 36765 ft | 502 kts | 119° |
| 2026-04-27 18:30 | 17.18159 | 60.94139 | 36765 ft | 502 kts | 119° |
| 2026-04-27 18:31 | 17.14479 | 61.00353 | 36766 ft | 502 kts | 119° |
| 2026-04-27 18:31 | 17.10696 | 61.06736 | 36766 ft | 502 kts | 119° |
| 2026-04-27 18:32 | 17.06941 | 61.13063 | 36777 ft | 502 kts | 119° |
| 2026-04-27 18:32 | 17.03231 | 61.19311 | 36770 ft | 504 kts | 119° |
| 2026-04-27 18:33 | 16.99285 | 61.25948 | 36771 ft | 509 kts | 119° |
| 2026-04-27 18:33 | 16.95546 | 61.32233 | 36779 ft | 508 kts | 119° |
| 2026-04-27 18:34 | 16.91760 | 61.38590 | 36779 ft | 503 kts | 119° |
| 2026-04-27 18:34 | 16.88443 | 61.44155 | 36765 ft | 504 kts | 119° |
| 2026-04-27 18:35 | 16.84684 | 61.50466 | 36728 ft | 512 kts | 120° |
| 2026-04-27 18:35 | 16.80893 | 61.56830 | 36740 ft | 516 kts | 120° |
| 2026-04-27 18:36 | 16.76814 | 61.63649 | 36739 ft | 514 kts | 120° |
| 2026-04-27 18:36 | 16.73578 | 61.69052 | 36728 ft | 518 kts | 120° |
| 2026-04-27 18:37 | 16.69745 | 61.75447 | 36728 ft | 521 kts | 120° |
| 2026-04-27 18:37 | 16.65691 | 61.82206 | 36728 ft | 521 kts | 120° |
| 2026-04-27 18:38 | 16.61841 | 61.88609 | 36728 ft | 520 kts | 120° |
| 2026-04-27 18:38 | 16.57975 | 61.95033 | 36728 ft | 520 kts | 120° |
| 2026-04-27 18:39 | 16.53840 | 62.01897 | 36728 ft | 520 kts | 120° |
| 2026-04-27 18:39 | 16.49967 | 62.08322 | 36728 ft | 520 kts | 120° |
| 2026-04-27 18:40 | 16.46122 | 62.14738 | 36728 ft | 520 kts | 120° |
| 2026-04-27 18:40 | 16.42303 | 62.21091 | 36728 ft | 520 kts | 120° |
| 2026-04-27 18:41 | 16.39079 | 62.26442 | 36728 ft | 520 kts | 120° |
| 2026-04-27 18:41 | 16.35151 | 62.32951 | 36728 ft | 520 kts | 120° |
| 2026-04-27 18:42 | 16.31951 | 62.38249 | 36728 ft | 520 kts | 120° |
| 2026-04-27 18:42 | 16.27414 | 62.45752 | 36728 ft | 520 kts | 120° |
| 2026-04-27 18:43 | 16.23596 | 62.52060 | 36728 ft | 520 kts | 120° |
| 2026-04-27 18:43 | 16.19678 | 62.58529 | 36728 ft | 520 kts | 120° |
| 2026-04-27 18:44 | 16.15813 | 62.64902 | 36728 ft | 520 kts | 120° |
| 2026-04-27 18:44 | 16.11923 | 62.71313 | 36728 ft | 520 kts | 120° |
| 2026-04-27 18:45 | 16.08059 | 62.77674 | 36728 ft | 520 kts | 120° |
| 2026-04-27 18:45 | 16.04192 | 62.84036 | 36728 ft | 520 kts | 120° |
| 2026-04-27 18:46 | 16.00321 | 62.90399 | 36728 ft | 520 kts | 120° |
| 2026-04-27 18:46 | 15.96425 | 62.96796 | 36728 ft | 520 kts | 120° |
| 2026-04-27 18:47 | 15.92550 | 63.03153 | 36728 ft | 520 kts | 120° |
| 2026-04-27 18:47 | 15.88629 | 63.09581 | 36728 ft | 520 kts | 120° |
| 2026-04-27 18:48 | 15.84725 | 63.15975 | 36728 ft | 520 kts | 120° |
| 2026-04-27 18:48 | 15.80871 | 63.22281 | 36728 ft | 520 kts | 120° |
| 2026-04-27 18:49 | 15.76936 | 63.28716 | 36728 ft | 520 kts | 120° |
| 2026-04-27 18:49 | 15.73027 | 63.35101 | 36728 ft | 520 kts | 120° |
| 2026-04-27 18:50 | 15.69513 | 63.40837 | 36728 ft | 520 kts | 120° |
| 2026-04-27 18:50 | 15.65602 | 63.47216 | 36728 ft | 520 kts | 120° |
| 2026-04-27 18:51 | 15.61689 | 63.53593 | 36728 ft | 520 kts | 120° |
| 2026-04-27 18:51 | 15.57777 | 63.59962 | 36728 ft | 520 kts | 120° |
| 2026-04-27 18:52 | 15.53884 | 63.66295 | 36728 ft | 520 kts | 120° |
| 2026-04-27 18:53 | 15.48039 | 63.75793 | 36728 ft | 520 kts | 120° |
| 2026-04-27 18:53 | 15.44063 | 63.82248 | 36728 ft | 520 kts | 120° |
| 2026-04-27 18:54 | 15.40160 | 63.88579 | 36728 ft | 520 kts | 121° |
| 2026-04-27 18:54 | 15.36236 | 63.94938 | 36728 ft | 520 kts | 121° |
| 2026-04-27 18:55 | 15.32360 | 64.01214 | 36728 ft | 520 kts | 121° |
| 2026-04-27 18:55 | 15.28507 | 64.07449 | 36728 ft | 520 kts | 121° |
| 2026-04-27 18:56 | 15.24470 | 64.13975 | 36728 ft | 520 kts | 121° |
| 2026-04-27 18:56 | 15.20580 | 64.20258 | 36728 ft | 520 kts | 121° |
| 2026-04-27 18:57 | 15.16617 | 64.26654 | 36728 ft | 520 kts | 121° |
| 2026-04-27 18:57 | 15.12706 | 64.32962 | 36728 ft | 520 kts | 121° |
| 2026-04-27 18:58 | 15.08713 | 64.39395 | 36728 ft | 520 kts | 121° |
| 2026-04-27 18:58 | 15.04800 | 64.45696 | 36728 ft | 520 kts | 121° |
| 2026-04-27 18:59 | 15.01460 | 64.51068 | 36728 ft | 520 kts | 121° |
| 2026-04-27 18:59 | 14.97523 | 64.57398 | 36728 ft | 520 kts | 121° |
| 2026-04-27 19:00 | 14.93573 | 64.63742 | 36728 ft | 520 kts | 121° |
| 2026-04-27 19:00 | 14.89652 | 64.70036 | 36728 ft | 520 kts | 121° |
| 2026-04-27 19:01 | 14.85835 | 64.76157 | 36728 ft | 520 kts | 121° |
| 2026-04-27 19:01 | 14.81774 | 64.82666 | 36728 ft | 520 kts | 121° |
| 2026-04-27 19:02 | 14.77849 | 64.88950 | 36728 ft | 520 kts | 121° |
| 2026-04-27 19:02 | 14.73823 | 64.95409 | 36728 ft | 520 kts | 121° |
| 2026-04-27 19:03 | 14.69892 | 65.01694 | 36728 ft | 520 kts | 121° |
| 2026-04-27 19:03 | 14.65771 | 65.08269 | 36728 ft | 520 kts | 121° |
| 2026-04-27 19:04 | 14.61835 | 65.14546 | 36728 ft | 520 kts | 121° |
| 2026-04-27 19:04 | 14.57817 | 65.20961 | 36728 ft | 520 kts | 121° |
| 2026-04-27 19:05 | 14.53963 | 65.27173 | 36728 ft | 520 kts | 121° |
| 2026-04-27 19:05 | 14.50079 | 65.33425 | 36728 ft | 520 kts | 121° |
| 2026-04-27 19:06 | 14.46119 | 65.39793 | 36728 ft | 520 kts | 121° |
| 2026-04-27 19:06 | 14.42841 | 65.45061 | 36728 ft | 520 kts | 121° |
| 2026-04-27 19:07 | 14.38911 | 65.51384 | 36728 ft | 520 kts | 120° |
| 2026-04-27 19:07 | 14.35012 | 65.57676 | 36728 ft | 520 kts | 121° |
| 2026-04-27 19:08 | 14.31077 | 65.64004 | 36728 ft | 520 kts | 121° |
| 2026-04-27 19:08 | 14.27163 | 65.70290 | 36728 ft | 520 kts | 121° |
| 2026-04-27 19:09 | 14.23211 | 65.76629 | 36728 ft | 520 kts | 121° |
| 2026-04-27 19:09 | 14.19299 | 65.82899 | 36728 ft | 520 kts | 121° |
| 2026-04-27 19:10 | 14.15378 | 65.89177 | 36728 ft | 520 kts | 121° |
| 2026-04-27 19:10 | 14.11427 | 65.95500 | 36728 ft | 520 kts | 121° |
| 2026-04-27 19:11 | 14.07532 | 66.01727 | 36728 ft | 520 kts | 121° |
| 2026-04-27 19:11 | 14.03582 | 66.08039 | 36728 ft | 520 kts | 121° |
| 2026-04-27 19:12 | 13.99867 | 66.13970 | 36748 ft | 520 kts | 121° |
| 2026-04-27 19:12 | 13.97906 | 66.17101 | 36858 ft | 523 kts | 121° |
| 2026-04-27 19:12 | 13.95924 | 66.20262 | 36895 ft | 527 kts | 121° |
| 2026-04-27 19:13 | 13.91962 | 66.26577 | 36905 ft | 533 kts | 121° |
| 2026-04-27 19:13 | 13.87841 | 66.33140 | 36905 ft | 534 kts | 121° |
| 2026-04-27 19:14 | 13.83782 | 66.39602 | 36905 ft | 532 kts | 121° |
| 2026-04-27 19:14 | 13.79792 | 66.45948 | 36905 ft | 532 kts | 121° |
| 2026-04-27 19:15 | 13.75714 | 66.52429 | 36905 ft | 532 kts | 121° |
| 2026-04-27 19:15 | 13.71688 | 66.58822 | 36905 ft | 532 kts | 122° |
| 2026-04-27 19:16 | 13.67577 | 66.65347 | 36905 ft | 532 kts | 122° |
| 2026-04-27 19:16 | 13.63527 | 66.71769 | 36905 ft | 532 kts | 122° |
| 2026-04-27 19:17 | 13.59467 | 66.78201 | 36905 ft | 532 kts | 122° |
| 2026-04-27 19:17 | 13.55378 | 66.84676 | 36905 ft | 532 kts | 122° |
| 2026-04-27 19:18 | 13.51349 | 66.91051 | 36905 ft | 532 kts | 122° |
| 2026-04-27 19:18 | 13.47312 | 66.97432 | 36905 ft | 532 kts | 122° |
| 2026-04-27 19:19 | 13.43297 | 67.03775 | 36905 ft | 532 kts | 122° |
| 2026-04-27 19:19 | 13.39236 | 67.10187 | 36905 ft | 532 kts | 122° |
| 2026-04-27 19:20 | 13.35164 | 67.16611 | 36905 ft | 532 kts | 122° |
| 2026-04-27 19:20 | 13.31045 | 67.23104 | 36905 ft | 532 kts | 122° |
| 2026-04-27 19:21 | 13.27002 | 67.29472 | 36905 ft | 532 kts | 122° |
| 2026-04-27 19:21 | 13.22958 | 67.35837 | 36905 ft | 532 kts | 122° |
| 2026-04-27 19:22 | 13.19589 | 67.41136 | 36898 ft | 532 kts | 122° |
| 2026-04-27 19:22 | 13.14837 | 67.48607 | 36887 ft | 532 kts | 122° |
| 2026-04-27 19:23 | 13.11471 | 67.53895 | 36887 ft | 532 kts | 122° |
| 2026-04-27 19:23 | 13.07364 | 67.60341 | 36887 ft | 533 kts | 122° |
| 2026-04-27 19:24 | 13.03305 | 67.66709 | 36887 ft | 533 kts | 122° |
| 2026-04-27 19:24 | 12.99247 | 67.73069 | 36887 ft | 532 kts | 122° |
| 2026-04-27 19:25 | 12.95145 | 67.79513 | 36887 ft | 532 kts | 122° |
| 2026-04-27 19:25 | 12.90975 | 67.86037 | 36887 ft | 533 kts | 122° |
| 2026-04-27 19:26 | 12.86909 | 67.92391 | 36887 ft | 533 kts | 122° |
| 2026-04-27 19:26 | 12.82843 | 67.98742 | 36887 ft | 533 kts | 122° |
| 2026-04-27 19:27 | 12.78795 | 68.05089 | 36886 ft | 533 kts | 122° |
| 2026-04-27 19:27 | 12.74776 | 68.11422 | 36886 ft | 533 kts | 122° |
| 2026-04-27 19:28 | 12.71061 | 68.17270 | 36886 ft | 533 kts | 122° |
| 2026-04-27 19:28 | 12.66967 | 68.23709 | 36886 ft | 533 kts | 122° |
| 2026-04-27 19:29 | 12.62844 | 68.30190 | 36885 ft | 533 kts | 122° |
| 2026-04-27 19:29 | 12.58781 | 68.36599 | 36886 ft | 533 kts | 122° |
| 2026-04-27 19:30 | 12.54894 | 68.42719 | 36885 ft | 533 kts | 122° |
| 2026-04-27 19:30 | 12.50614 | 68.49443 | 36885 ft | 533 kts | 122° |
| 2026-04-27 19:31 | 12.46565 | 68.55799 | 36885 ft | 533 kts | 122° |
| 2026-04-27 19:31 | 12.42515 | 68.62152 | 36885 ft | 533 kts | 122° |
| 2026-04-27 19:32 | 12.38464 | 68.68502 | 36885 ft | 533 kts | 122° |
| 2026-04-27 19:32 | 12.34388 | 68.74898 | 36885 ft | 533 kts | 122° |
| 2026-04-27 19:33 | 12.30545 | 68.80920 | 36885 ft | 533 kts | 122° |
| 2026-04-27 19:33 | 12.26244 | 68.87642 | 36885 ft | 533 kts | 122° |
| 2026-04-27 19:34 | 12.22183 | 68.93986 | 36884 ft | 533 kts | 122° |
| 2026-04-27 19:34 | 12.18038 | 69.00459 | 36884 ft | 533 kts | 122° |
| 2026-04-27 19:35 | 12.13964 | 69.06842 | 36885 ft | 533 kts | 122° |
| 2026-04-27 19:35 | 12.09909 | 69.13190 | 36884 ft | 533 kts | 122° |
| 2026-04-27 19:36 | 12.05831 | 69.19571 | 36884 ft | 533 kts | 122° |
| 2026-04-27 19:36 | 12.02463 | 69.24839 | 36884 ft | 533 kts | 122° |
| 2026-04-27 19:37 | 11.97671 | 69.32343 | 36884 ft | 533 kts | 122° |
| 2026-04-27 19:37 | 11.94310 | 69.37610 | 36884 ft | 533 kts | 122° |
| 2026-04-27 19:38 | 11.90219 | 69.44008 | 36883 ft | 533 kts | 122° |
| 2026-04-27 19:38 | 11.86112 | 69.50424 | 36883 ft | 533 kts | 122° |
| 2026-04-27 19:39 | 11.82049 | 69.56764 | 36883 ft | 533 kts | 122° |
| 2026-04-27 19:39 | 11.77993 | 69.63103 | 36883 ft | 533 kts | 122° |
| 2026-04-27 19:40 | 11.73822 | 69.69608 | 36882 ft | 533 kts | 122° |
| 2026-04-27 19:40 | 11.69729 | 69.75979 | 36882 ft | 533 kts | 122° |
| 2026-04-27 19:41 | 11.65553 | 69.82476 | 36883 ft | 533 kts | 122° |
| 2026-04-27 19:41 | 11.61456 | 69.88848 | 36882 ft | 533 kts | 122° |
| 2026-04-27 19:42 | 11.57407 | 69.95090 | 36882 ft | 533 kts | 122° |
| 2026-04-27 19:42 | 11.53271 | 70.01452 | 36882 ft | 533 kts | 122° |
| 2026-04-27 19:43 | 11.49173 | 70.07756 | 36882 ft | 533 kts | 122° |
| 2026-04-27 19:43 | 11.45522 | 70.13371 | 36881 ft | 533 kts | 122° |
| 2026-04-27 19:44 | 11.41426 | 70.19669 | 36883 ft | 529 kts | 122° |
| 2026-04-27 19:44 | 11.37458 | 70.25800 | 36881 ft | 529 kts | 122° |
| 2026-04-27 19:45 | 11.33301 | 70.32194 | 36895 ft | 532 kts | 122° |
| 2026-04-27 19:45 | 11.31274 | 70.35302 | 36930 ft | 520 kts | 121° |
| 2026-04-27 19:45 | 11.29273 | 70.38383 | 36886 ft | 523 kts | 121° |
| 2026-04-27 19:46 | 11.25202 | 70.44643 | 36872 ft | 529 kts | 122° |
| 2026-04-27 19:46 | 11.23187 | 70.47739 | 37173 ft | 514 kts | 122° |
| 2026-04-27 19:46 | 11.21236 | 70.50729 | 37329 ft | 494 kts | 122° |
| 2026-04-27 19:46 | 11.19341 | 70.53633 | 37033 ft | 490 kts | 122° |
| 2026-04-27 19:47 | 11.17453 | 70.56536 | 36888 ft | 489 kts | 122° |
| 2026-04-27 19:47 | 11.13694 | 70.62300 | 36847 ft | 483 kts | 123° |
| 2026-04-27 19:48 | 11.09994 | 70.67959 | 36846 ft | 483 kts | 123° |
| 2026-04-27 19:48 | 11.06258 | 70.73686 | 36847 ft | 486 kts | 123° |
| 2026-04-27 19:49 | 11.02501 | 70.79436 | 36845 ft | 484 kts | 123° |
| 2026-04-27 19:49 | 10.98771 | 70.85141 | 36845 ft | 483 kts | 123° |
| 2026-04-27 19:50 | 10.95023 | 70.90871 | 36845 ft | 483 kts | 123° |
| 2026-04-27 19:50 | 10.91276 | 70.96595 | 36845 ft | 483 kts | 123° |
| 2026-04-27 19:51 | 10.87520 | 71.02333 | 36845 ft | 483 kts | 123° |
| 2026-04-27 19:51 | 10.83789 | 71.08027 | 36844 ft | 483 kts | 123° |
| 2026-04-27 19:52 | 10.80192 | 71.13515 | 36845 ft | 483 kts | 123° |
| 2026-04-27 19:52 | 10.76483 | 71.19170 | 36845 ft | 483 kts | 123° |
| 2026-04-27 19:53 | 10.70835 | 71.27777 | 36845 ft | 483 kts | 123° |
| 2026-04-27 19:53 | 10.67075 | 71.33504 | 36844 ft | 483 kts | 123° |
| 2026-04-27 19:54 | 10.63394 | 71.39107 | 36845 ft | 483 kts | 123° |
| 2026-04-27 19:54 | 10.59611 | 71.44861 | 36845 ft | 483 kts | 123° |
| 2026-04-27 19:55 | 10.56323 | 71.49862 | 36844 ft | 483 kts | 123° |
| 2026-04-27 19:55 | 10.52582 | 71.55546 | 36844 ft | 483 kts | 123° |
| 2026-04-27 19:56 | 10.48843 | 71.61226 | 36844 ft | 483 kts | 123° |
| 2026-04-27 19:56 | 10.47504 | 71.63259 | 36844 ft | 483 kts | 123° |